sensor_id;sensor_type;location;lat;lon;timestamp;pressure;altitude;pressure_sealevel;temperature;humidity
41467;BME280;27205;53.690;19.948;2022-07-06T00:00:23;100269.89;;;15.53;71.40
41467;BME280;27205;53.690;19.948;2022-07-06T00:05:38;100277.36;;;15.44;71.60
41467;BME280;27205;53.690;19.948;2022-07-06T00:10:41;100274.10;;;15.42;71.83
41467;BME280;27205;53.690;19.948;2022-07-06T00:15:45;100276.01;;;15.38;72.05
41467;BME280;27205;53.690;19.948;2022-07-06T00:20:48;100277.59;;;15.33;72.38
41467;BME280;27205;53.690;19.948;2022-07-06T00:25:52;100278.63;;;15.31;72.55
41467;BME280;27205;53.690;19.948;2022-07-06T00:30:55;100276.73;;;15.25;72.69
41467;BME280;27205;53.690;19.948;2022-07-06T00:35:59;100270.70;;;15.20;72.84
41467;BME280;27205;53.690;19.948;2022-07-06T00:41:02;100266.95;;;15.18;72.72
41467;BME280;27205;53.690;19.948;2022-07-06T00:46:09;100266.48;;;15.09;73.04
41467;BME280;27205;53.690;19.948;2022-07-06T00:51:13;100257.10;;;14.99;73.14
41467;BME280;27205;53.690;19.948;2022-07-06T00:56:16;100248.02;;;14.92;73.44
41467;BME280;27205;53.690;19.948;2022-07-06T01:01:20;100241.16;;;14.93;73.59
41467;BME280;27205;53.690;19.948;2022-07-06T01:06:25;100243.40;;;14.92;73.82
41467;BME280;27205;53.690;19.948;2022-07-06T01:11:29;100245.20;;;14.93;73.92
41467;BME280;27205;53.690;19.948;2022-07-06T01:16:32;100241.02;;;14.92;74.04
41467;BME280;27205;53.690;19.948;2022-07-06T01:21:38;100242.41;;;14.90;74.17
41467;BME280;27205;53.690;19.948;2022-07-06T01:26:41;100240.29;;;14.90;74.33
41467;BME280;27205;53.690;19.948;2022-07-06T01:31:49;100233.98;;;14.82;74.46
41467;BME280;27205;53.690;19.948;2022-07-06T01:36:53;100238.41;;;14.76;74.61
41467;BME280;27205;53.690;19.948;2022-07-06T01:41:57;100238.69;;;14.63;74.80
41467;BME280;27205;53.690;19.948;2022-07-06T01:47:00;100237.97;;;14.51;74.97
41467;BME280;27205;53.690;19.948;2022-07-06T01:52:04;100234.60;;;14.52;75.24
41467;BME280;27205;53.690;19.948;2022-07-06T01:57:08;100224.72;;;14.56;75.37
41467;BME280;27205;53.690;19.948;2022-07-06T02:02:11;100216.46;;;14.51;75.35
41467;BME280;27205;53.690;19.948;2022-07-06T02:07:15;100222.84;;;14.50;75.53
41467;BME280;27205;53.690;19.948;2022-07-06T02:12:18;100216.86;;;14.50;75.75
41467;BME280;27205;53.690;19.948;2022-07-06T02:17:21;100214.05;;;14.52;75.92
41467;BME280;27205;53.690;19.948;2022-07-06T02:22:25;100217.98;;;14.52;75.97
41467;BME280;27205;53.690;19.948;2022-07-06T02:27:28;100220.52;;;14.44;75.96
41467;BME280;27205;53.690;19.948;2022-07-06T02:32:32;100225.98;;;14.36;76.32
41467;BME280;27205;53.690;19.948;2022-07-06T02:37:35;100226.23;;;14.27;76.68
41467;BME280;27205;53.690;19.948;2022-07-06T02:42:41;100232.20;;;14.21;77.03
41467;BME280;27205;53.690;19.948;2022-07-06T02:47:45;100231.09;;;14.20;77.04
41467;BME280;27205;53.690;19.948;2022-07-06T02:52:48;100230.73;;;14.19;77.56
41467;BME280;27205;53.690;19.948;2022-07-06T02:57:52;100225.63;;;14.17;77.75
41467;BME280;27205;53.690;19.948;2022-07-06T03:02:55;100223.20;;;14.22;77.93
41467;BME280;27205;53.690;19.948;2022-07-06T03:07:59;100219.45;;;14.28;77.88
41467;BME280;27205;53.690;19.948;2022-07-06T03:13:02;100215.23;;;14.36;77.86
41467;BME280;27205;53.690;19.948;2022-07-06T03:18:05;100215.15;;;14.37;78.14
41467;BME280;27205;53.690;19.948;2022-07-06T03:23:09;100210.64;;;14.45;78.44
41467;BME280;27205;53.690;19.948;2022-07-06T03:28:12;100208.48;;;14.51;78.75
41467;BME280;27205;53.690;19.948;2022-07-06T03:33:16;100205.02;;;14.58;78.64
41467;BME280;27205;53.690;19.948;2022-07-06T03:38:19;100198.28;;;14.76;78.90
41467;BME280;27205;53.690;19.948;2022-07-06T03:43:26;100196.41;;;14.93;78.93
41467;BME280;27205;53.690;19.948;2022-07-06T03:48:29;100199.65;;;15.10;78.91
41467;BME280;27205;53.690;19.948;2022-07-06T03:53:32;100203.54;;;15.23;78.94
41467;BME280;27205;53.690;19.948;2022-07-06T03:58:36;100201.40;;;15.42;79.18
41467;BME280;27205;53.690;19.948;2022-07-06T04:03:39;100199.98;;;15.63;78.88
41467;BME280;27205;53.690;19.948;2022-07-06T04:08:43;100200.96;;;15.68;78.92
41467;BME280;27205;53.690;19.948;2022-07-06T04:13:47;100206.04;;;15.71;78.94
41467;BME280;27205;53.690;19.948;2022-07-06T04:18:50;100204.66;;;15.66;78.78
41467;BME280;27205;53.690;19.948;2022-07-06T04:23:53;100201.14;;;15.63;78.94
41467;BME280;27205;53.690;19.948;2022-07-06T04:28:57;100204.38;;;15.63;79.14
41467;BME280;27205;53.690;19.948;2022-07-06T04:34:00;100203.19;;;15.57;79.38
41467;BME280;27205;53.690;19.948;2022-07-06T04:39:03;100199.45;;;15.56;79.46
41467;BME280;27205;53.690;19.948;2022-07-06T04:44:07;100195.86;;;15.67;79.64
41467;BME280;27205;53.690;19.948;2022-07-06T04:49:10;100194.12;;;15.71;79.74
41467;BME280;27205;53.690;19.948;2022-07-06T04:54:14;100189.40;;;15.79;79.90
41467;BME280;27205;53.690;19.948;2022-07-06T04:59:17;100189.98;;;15.86;79.97
41467;BME280;27205;53.690;19.948;2022-07-06T05:04:21;100193.05;;;15.94;80.10
41467;BME280;27205;53.690;19.948;2022-07-06T05:09:25;100190.30;;;16.05;80.02
41467;BME280;27205;53.690;19.948;2022-07-06T05:14:28;100182.71;;;16.19;80.18
41467;BME280;27205;53.690;19.948;2022-07-06T05:19:32;100179.52;;;16.34;79.96
41467;BME280;27205;53.690;19.948;2022-07-06T05:24:35;100175.14;;;16.41;80.27
41467;BME280;27205;53.690;19.948;2022-07-06T05:29:39;100168.08;;;16.60;80.26
41467;BME280;27205;53.690;19.948;2022-07-06T05:34:42;100171.41;;;16.83;79.88
41467;BME280;27205;53.690;19.948;2022-07-06T05:39:46;100175.71;;;16.96;79.94
41467;BME280;27205;53.690;19.948;2022-07-06T05:44:54;100181.20;;;17.07;79.58
41467;BME280;27205;53.690;19.948;2022-07-06T05:49:58;100175.41;;;17.18;79.36
41467;BME280;27205;53.690;19.948;2022-07-06T05:55:17;100179.36;;;17.28;78.69
41467;BME280;27205;53.690;19.948;2022-07-06T06:00:21;100182.95;;;17.33;77.46
41467;BME280;27205;53.690;19.948;2022-07-06T06:05:24;100181.67;;;17.43;77.37
41467;BME280;27205;53.690;19.948;2022-07-06T06:10:28;100167.38;;;17.58;77.22
41467;BME280;27205;53.690;19.948;2022-07-06T06:15:31;100165.52;;;17.68;76.91
41467;BME280;27205;53.690;19.948;2022-07-06T06:20:35;100162.11;;;17.72;76.48
41467;BME280;27205;53.690;19.948;2022-07-06T06:25:39;100164.50;;;17.84;76.11
41467;BME280;27205;53.690;19.948;2022-07-06T06:30:42;100171.94;;;17.93;75.38
41467;BME280;27205;53.690;19.948;2022-07-06T06:35:48;100170.39;;;17.99;74.83
41467;BME280;27205;53.690;19.948;2022-07-06T06:40:52;100175.06;;;18.06;74.33
41467;BME280;27205;53.690;19.948;2022-07-06T06:45:56;100177.48;;;18.23;73.62
41467;BME280;27205;53.690;19.948;2022-07-06T06:50:59;100177.55;;;18.30;73.01
41467;BME280;27205;53.690;19.948;2022-07-06T06:56:03;100179.58;;;18.44;71.99
41467;BME280;27205;53.690;19.948;2022-07-06T07:01:06;100171.98;;;18.56;71.36
41467;BME280;27205;53.690;19.948;2022-07-06T07:06:10;100162.95;;;18.73;71.03
41467;BME280;27205;53.690;19.948;2022-07-06T07:11:14;100157.27;;;18.80;69.77
41467;BME280;27205;53.690;19.948;2022-07-06T07:16:17;100161.98;;;18.88;69.04
41467;BME280;27205;53.690;19.948;2022-07-06T07:21:21;100159.29;;;18.92;68.37
41467;BME280;27205;53.690;19.948;2022-07-06T07:26:24;100171.98;;;19.07;66.83
41467;BME280;27205;53.690;19.948;2022-07-06T07:31:28;100168.05;;;19.18;65.98
41467;BME280;27205;53.690;19.948;2022-07-06T07:36:31;100173.80;;;19.36;65.02
41467;BME280;27205;53.690;19.948;2022-07-06T07:41:35;100176.75;;;19.41;63.84
41467;BME280;27205;53.690;19.948;2022-07-06T07:46:38;100175.33;;;19.54;63.67
41467;BME280;27205;53.690;19.948;2022-07-06T07:51:42;100171.83;;;19.98;63.53
41467;BME280;27205;53.690;19.948;2022-07-06T07:56:45;100173.77;;;20.18;62.10
41467;BME280;27205;53.690;19.948;2022-07-06T08:01:49;100177.27;;;20.15;61.99
41467;BME280;27205;53.690;19.948;2022-07-06T08:06:52;100171.02;;;20.29;61.79
41467;BME280;27205;53.690;19.948;2022-07-06T08:12:03;100178.19;;;20.58;61.02
41467;BME280;27205;53.690;19.948;2022-07-06T08:17:06;100175.09;;;20.65;60.52
41467;BME280;27205;53.690;19.948;2022-07-06T08:22:10;100175.89;;;20.76;59.28
41467;BME280;27205;53.690;19.948;2022-07-06T08:27:13;100186.47;;;20.72;58.42
41467;BME280;27205;53.690;19.948;2022-07-06T08:32:16;100179.05;;;20.86;58.35
41467;BME280;27205;53.690;19.948;2022-07-06T08:37:36;100186.48;;;20.97;57.56
41467;BME280;27205;53.690;19.948;2022-07-06T08:42:42;100179.69;;;21.16;56.75
41467;BME280;27205;53.690;19.948;2022-07-06T08:47:48;100181.51;;;21.11;56.51
41467;BME280;27205;53.690;19.948;2022-07-06T08:52:52;100176.75;;;21.21;55.94
41467;BME280;27205;53.690;19.948;2022-07-06T08:57:56;100178.90;;;21.39;55.18
41467;BME280;27205;53.690;19.948;2022-07-06T09:03:01;100179.16;;;21.47;53.86
41467;BME280;27205;53.690;19.948;2022-07-06T09:08:04;100169.54;;;21.49;53.75
41467;BME280;27205;53.690;19.948;2022-07-06T09:13:08;100169.35;;;21.43;52.58
41467;BME280;27205;53.690;19.948;2022-07-06T09:18:12;100164.84;;;21.55;52.65
41467;BME280;27205;53.690;19.948;2022-07-06T09:23:17;100157.91;;;21.87;51.97
41467;BME280;27205;53.690;19.948;2022-07-06T09:28:20;100156.36;;;22.10;51.13
41467;BME280;27205;53.690;19.948;2022-07-06T09:33:24;100151.08;;;22.20;50.42
41467;BME280;27205;53.690;19.948;2022-07-06T09:38:29;100154.03;;;22.19;48.89
41467;BME280;27205;53.690;19.948;2022-07-06T09:43:32;100159.77;;;22.27;48.35
41467;BME280;27205;53.690;19.948;2022-07-06T09:48:36;100158.73;;;22.44;47.45
41467;BME280;27205;53.690;19.948;2022-07-06T09:53:40;100153.58;;;22.59;45.35
41467;BME280;27205;53.690;19.948;2022-07-06T09:58:43;100144.30;;;22.73;44.32
41467;BME280;27205;53.690;19.948;2022-07-06T10:04:06;100144.81;;;22.99;44.32
41467;BME280;27205;53.690;19.948;2022-07-06T10:09:13;100138.98;;;23.04;44.06
41467;BME280;27205;53.690;19.948;2022-07-06T10:14:20;100136.60;;;23.42;43.99
41467;BME280;27205;53.690;19.948;2022-07-06T10:19:25;100131.92;;;23.78;43.16
41467;BME280;27205;53.690;19.948;2022-07-06T10:24:29;100140.84;;;24.09;43.17
41467;BME280;27205;53.690;19.948;2022-07-06T10:29:33;100149.16;;;24.08;41.89
41467;BME280;27205;53.690;19.948;2022-07-06T10:34:37;100140.22;;;23.32;42.02
41467;BME280;27205;53.690;19.948;2022-07-06T10:39:40;100151.27;;;22.80;42.37
41467;BME280;27205;53.690;19.948;2022-07-06T10:45:02;100157.44;;;22.60;42.95
41467;BME280;27205;53.690;19.948;2022-07-06T10:50:06;100155.75;;;22.68;43.37
41467;BME280;27205;53.690;19.948;2022-07-06T11:06:04;100145.70;;;23.52;43.23
41467;BME280;27205;53.690;19.948;2022-07-06T11:16:47;100140.43;;;24.12;42.85
41467;BME280;27205;53.690;19.948;2022-07-06T11:22:07;100142.45;;;23.84;42.87
41467;BME280;27205;53.690;19.948;2022-07-06T11:27:13;100144.13;;;23.67;42.93
41467;BME280;27205;53.690;19.948;2022-07-06T11:32:23;100142.39;;;23.72;42.84
41467;BME280;27205;53.690;19.948;2022-07-06T11:37:28;100144.06;;;23.88;42.83
41467;BME280;27205;53.690;19.948;2022-07-06T11:42:31;100147.58;;;24.14;42.82
41467;BME280;27205;53.690;19.948;2022-07-06T11:47:35;100142.58;;;24.21;42.69
41467;BME280;27205;53.690;19.948;2022-07-06T11:52:38;100142.77;;;24.87;42.37
41467;BME280;27205;53.690;19.948;2022-07-06T11:57:43;100142.48;;;25.18;41.64
41467;BME280;27205;53.690;19.948;2022-07-06T12:03:00;100144.09;;;25.04;41.39
41467;BME280;27205;53.690;19.948;2022-07-06T12:08:06;100145.08;;;24.44;40.74
41467;BME280;27205;53.690;19.948;2022-07-06T12:13:10;100146.23;;;24.14;40.91
41467;BME280;27205;53.690;19.948;2022-07-06T12:18:13;100154.73;;;24.10;40.49
41467;BME280;27205;53.690;19.948;2022-07-06T12:23:18;100150.70;;;24.31;40.49
41467;BME280;27205;53.690;19.948;2022-07-06T12:28:24;100150.84;;;24.52;40.55
41467;BME280;27205;53.690;19.948;2022-07-06T12:33:28;100148.66;;;24.78;40.49
41467;BME280;27205;53.690;19.948;2022-07-06T12:38:31;100147.91;;;24.97;39.78
41467;BME280;27205;53.690;19.948;2022-07-06T12:43:36;100144.48;;;24.76;39.43
41467;BME280;27205;53.690;19.948;2022-07-06T12:48:56;100147.09;;;24.27;40.15
41467;BME280;27205;53.690;19.948;2022-07-06T12:54:12;100148.04;;;24.08;40.93
41467;BME280;27205;53.690;19.948;2022-07-06T12:59:21;100142.39;;;23.93;41.35
41467;BME280;27205;53.690;19.948;2022-07-06T13:04:27;100145.56;;;23.18;42.24
41467;BME280;27205;53.690;19.948;2022-07-06T13:09:32;100149.33;;;22.58;42.92
41467;BME280;27205;53.690;19.948;2022-07-06T13:14:35;100149.81;;;22.69;44.31
41467;BME280;27205;53.690;19.948;2022-07-06T13:19:39;100146.88;;;22.60;44.48
41467;BME280;27205;53.690;19.948;2022-07-06T13:24:43;100142.75;;;22.43;44.46
41467;BME280;27205;53.690;19.948;2022-07-06T13:36:05;100126.47;;;23.15;44.27
41467;BME280;27205;53.690;19.948;2022-07-06T13:41:09;100117.31;;;23.50;44.17
41467;BME280;27205;53.690;19.948;2022-07-06T13:46:12;100114.21;;;24.27;43.80
41467;BME280;27205;53.690;19.948;2022-07-06T13:51:15;100115.77;;;24.33;43.68
41467;BME280;27205;53.690;19.948;2022-07-06T13:56:19;100105.09;;;23.59;43.65
41467;BME280;27205;53.690;19.948;2022-07-06T14:01:22;100112.70;;;22.96;44.12
41467;BME280;27205;53.690;19.948;2022-07-06T14:06:32;100136.16;;;22.01;47.66
41467;BME280;27205;53.690;19.948;2022-07-06T14:11:36;100144.20;;;20.01;52.32
41467;BME280;27205;53.690;19.948;2022-07-06T14:16:39;100135.48;;;18.19;58.00
41467;BME280;27205;53.690;19.948;2022-07-06T14:21:44;100129.15;;;17.28;60.24
41467;BME280;27205;53.690;19.948;2022-07-06T14:26:49;100112.91;;;17.03;62.11
41467;BME280;27205;53.690;19.948;2022-07-06T14:31:52;100115.50;;;17.21;63.13
41467;BME280;27205;53.690;19.948;2022-07-06T14:36:56;100118.14;;;17.65;64.39
41467;BME280;27205;53.690;19.948;2022-07-06T14:41:59;100119.36;;;18.17;64.40
41467;BME280;27205;53.690;19.948;2022-07-06T14:47:03;100119.57;;;18.69;65.30
41467;BME280;27205;53.690;19.948;2022-07-06T14:52:07;100120.88;;;19.40;65.63
41467;BME280;27205;53.690;19.948;2022-07-06T14:57:13;100119.18;;;20.47;65.87
41467;BME280;27205;53.690;19.948;2022-07-06T15:02:16;100108.72;;;21.17;66.28
41467;BME280;27205;53.690;19.948;2022-07-06T15:07:19;100107.20;;;21.06;66.06
41467;BME280;27205;53.690;19.948;2022-07-06T15:12:23;100110.14;;;20.75;66.11
41467;BME280;27205;53.690;19.948;2022-07-06T15:17:26;100114.10;;;20.48;67.14
41467;BME280;27205;53.690;19.948;2022-07-06T15:22:31;100117.59;;;20.43;67.87
41467;BME280;27205;53.690;19.948;2022-07-06T15:27:36;100125.48;;;20.37;67.90
41467;BME280;27205;53.690;19.948;2022-07-06T15:32:39;100125.00;;;20.18;68.48
41467;BME280;27205;53.690;19.948;2022-07-06T15:37:44;100117.17;;;20.34;69.06
41467;BME280;27205;53.690;19.948;2022-07-06T15:42:56;100115.61;;;20.52;69.17
41467;BME280;27205;53.690;19.948;2022-07-06T15:47:59;100115.14;;;21.17;69.18
41467;BME280;27205;53.690;19.948;2022-07-06T15:53:03;100106.86;;;21.08;69.45
41467;BME280;27205;53.690;19.948;2022-07-06T15:58:06;100121.27;;;20.55;69.32
41467;BME280;27205;53.690;19.948;2022-07-06T16:03:10;100123.54;;;19.83;69.01
41467;BME280;27205;53.690;19.948;2022-07-06T16:08:13;100124.17;;;19.08;68.06
41467;BME280;27205;53.690;19.948;2022-07-06T16:13:35;100112.46;;;18.47;67.48
41467;BME280;27205;53.690;19.948;2022-07-06T16:18:39;100118.63;;;18.20;67.83
41467;BME280;27205;53.690;19.948;2022-07-06T16:23:43;100125.92;;;17.97;67.93
41467;BME280;27205;53.690;19.948;2022-07-06T16:28:46;100130.52;;;17.78;68.04
41467;BME280;27205;53.690;19.948;2022-07-06T16:33:50;100130.62;;;17.80;68.64
41467;BME280;27205;53.690;19.948;2022-07-06T16:38:53;100127.96;;;17.83;69.15
41467;BME280;27205;53.690;19.948;2022-07-06T16:43:57;100127.38;;;17.80;69.52
41467;BME280;27205;53.690;19.948;2022-07-06T16:49:01;100124.57;;;17.75;70.24
41467;BME280;27205;53.690;19.948;2022-07-06T16:54:04;100120.33;;;17.71;70.70
41467;BME280;27205;53.690;19.948;2022-07-06T16:59:08;100118.35;;;17.74;70.87
41467;BME280;27205;53.690;19.948;2022-07-06T17:04:11;100121.95;;;17.73;70.85
41467;BME280;27205;53.690;19.948;2022-07-06T17:09:22;100120.64;;;17.71;71.47
41467;BME280;27205;53.690;19.948;2022-07-06T17:14:26;100126.15;;;17.74;71.93
41467;BME280;27205;53.690;19.948;2022-07-06T17:19:29;100112.58;;;17.89;72.43
41467;BME280;27205;53.690;19.948;2022-07-06T17:24:33;100111.05;;;19.28;71.98
41467;BME280;27205;53.690;19.948;2022-07-06T17:29:36;100115.36;;;23.13;69.35
41467;BME280;27205;53.690;19.948;2022-07-06T17:34:39;100116.98;;;21.89;69.18
41467;BME280;27205;53.690;19.948;2022-07-06T17:39:44;100116.04;;;20.68;69.52
41467;BME280;27205;53.690;19.948;2022-07-06T17:44:47;100110.33;;;20.72;69.39
41467;BME280;27205;53.690;19.948;2022-07-06T17:49:51;100118.04;;;20.37;69.47
41467;BME280;27205;53.690;19.948;2022-07-06T17:54:54;100120.89;;;19.92;69.78
41467;BME280;27205;53.690;19.948;2022-07-06T17:59:57;100126.39;;;18.98;69.48
41467;BME280;27205;53.690;19.948;2022-07-06T18:05:02;100123.25;;;18.19;69.82
41467;BME280;27205;53.690;19.948;2022-07-06T18:10:06;100127.91;;;17.75;69.79
41467;BME280;27205;53.690;19.948;2022-07-06T18:15:09;100122.48;;;17.55;70.05
41467;BME280;27205;53.690;19.948;2022-07-06T18:20:13;100125.23;;;17.31;69.57
41467;BME280;27205;53.690;19.948;2022-07-06T18:25:17;100125.14;;;17.09;69.91
41467;BME280;27205;53.690;19.948;2022-07-06T18:30:20;100128.50;;;16.96;70.33
41467;BME280;27205;53.690;19.948;2022-07-06T18:35:25;100131.86;;;16.84;70.14
41467;BME280;27205;53.690;19.948;2022-07-06T18:40:28;100131.52;;;16.76;69.89
41467;BME280;27205;53.690;19.948;2022-07-06T18:45:32;100128.44;;;16.71;70.18
41467;BME280;27205;53.690;19.948;2022-07-06T18:50:35;100130.56;;;16.62;70.02
41467;BME280;27205;53.690;19.948;2022-07-06T18:55:39;100128.90;;;16.57;70.04
41467;BME280;27205;53.690;19.948;2022-07-06T19:00:42;100131.38;;;16.56;69.97
41467;BME280;27205;53.690;19.948;2022-07-06T19:05:46;100134.75;;;16.38;70.35
41467;BME280;27205;53.690;19.948;2022-07-06T19:10:50;100134.30;;;16.21;70.72
41467;BME280;27205;53.690;19.948;2022-07-06T19:15:53;100138.31;;;16.03;70.84
41467;BME280;27205;53.690;19.948;2022-07-06T19:20:57;100142.90;;;15.80;71.00
41467;BME280;27205;53.690;19.948;2022-07-06T19:26:03;100144.46;;;15.65;71.01
41467;BME280;27205;53.690;19.948;2022-07-06T19:31:06;100145.57;;;15.53;71.16
41467;BME280;27205;53.690;19.948;2022-07-06T19:36:10;100142.09;;;15.42;71.31
41467;BME280;27205;53.690;19.948;2022-07-06T19:41:13;100142.20;;;15.32;71.34
41467;BME280;27205;53.690;19.948;2022-07-06T19:46:19;100142.45;;;15.26;71.72
41467;BME280;27205;53.690;19.948;2022-07-06T19:51:22;100139.71;;;15.24;71.92
41467;BME280;27205;53.690;19.948;2022-07-06T19:56:26;100138.13;;;15.21;72.16
41467;BME280;27205;53.690;19.948;2022-07-06T20:01:29;100131.05;;;15.19;72.43
41467;BME280;27205;53.690;19.948;2022-07-06T20:06:33;100125.11;;;15.13;72.53
41467;BME280;27205;53.690;19.948;2022-07-06T20:11:36;100126.38;;;15.05;72.90
41467;BME280;27205;53.690;19.948;2022-07-06T20:16:40;100124.02;;;14.99;73.21
41467;BME280;27205;53.690;19.948;2022-07-06T20:21:44;100129.26;;;14.88;73.50
41467;BME280;27205;53.690;19.948;2022-07-06T20:26:48;100130.31;;;14.74;73.86
41467;BME280;27205;53.690;19.948;2022-07-06T20:31:52;100126.39;;;14.62;73.78
41467;BME280;27205;53.690;19.948;2022-07-06T20:36:57;100128.98;;;14.51;73.86
41467;BME280;27205;53.690;19.948;2022-07-06T20:42:00;100123.60;;;14.42;73.93
41467;BME280;27205;53.690;19.948;2022-07-06T20:47:04;100119.18;;;14.38;74.57
41467;BME280;27205;53.690;19.948;2022-07-06T20:52:08;100121.01;;;14.33;74.96
41467;BME280;27205;53.690;19.948;2022-07-06T20:57:11;100114.66;;;14.27;74.99
41467;BME280;27205;53.690;19.948;2022-07-06T21:02:15;100113.89;;;14.19;75.31
41467;BME280;27205;53.690;19.948;2022-07-06T21:07:19;100114.13;;;14.09;75.50
41467;BME280;27205;53.690;19.948;2022-07-06T21:12:22;100117.72;;;14.02;75.55
41467;BME280;27205;53.690;19.948;2022-07-06T21:17:26;100125.84;;;13.93;76.04
41467;BME280;27205;53.690;19.948;2022-07-06T21:22:31;100122.45;;;13.83;76.19
41467;BME280;27205;53.690;19.948;2022-07-06T21:27:34;100122.56;;;13.70;76.45
41467;BME280;27205;53.690;19.948;2022-07-06T21:32:37;100126.08;;;13.56;76.90
41467;BME280;27205;53.690;19.948;2022-07-06T21:37:41;100126.41;;;13.43;77.19
41467;BME280;27205;53.690;19.948;2022-07-06T21:42:44;100124.39;;;13.30;77.37
41467;BME280;27205;53.690;19.948;2022-07-06T21:47:48;100124.91;;;13.20;77.53
41467;BME280;27205;53.690;19.948;2022-07-06T21:52:51;100122.12;;;13.11;77.60
41467;BME280;27205;53.690;19.948;2022-07-06T21:57:55;100119.34;;;13.03;77.76
41467;BME280;27205;53.690;19.948;2022-07-06T22:02:59;100113.02;;;12.93;78.15
41467;BME280;27205;53.690;19.948;2022-07-06T22:08:19;100113.76;;;12.80;78.09
41467;BME280;27205;53.690;19.948;2022-07-06T22:13:23;100116.92;;;12.66;78.49
41467;BME280;27205;53.690;19.948;2022-07-06T22:18:47;100116.61;;;12.53;78.87
41467;BME280;27205;53.690;19.948;2022-07-06T22:23:50;100113.09;;;12.44;79.51
41467;BME280;27205;53.690;19.948;2022-07-06T22:28:54;100119.52;;;12.37;79.56
41467;BME280;27205;53.690;19.948;2022-07-06T22:33:57;100117.67;;;12.30;79.86
41467;BME280;27205;53.690;19.948;2022-07-06T22:39:02;100116.34;;;12.24;79.58
41467;BME280;27205;53.690;19.948;2022-07-06T22:44:06;100116.80;;;12.20;79.75
41467;BME280;27205;53.690;19.948;2022-07-06T22:49:10;100120.40;;;12.15;80.08
41467;BME280;27205;53.690;19.948;2022-07-06T22:54:13;100121.71;;;12.10;80.24
41467;BME280;27205;53.690;19.948;2022-07-06T22:59:16;100118.52;;;12.06;79.96
41467;BME280;27205;53.690;19.948;2022-07-06T23:04:20;100109.33;;;12.02;80.17
41467;BME280;27205;53.690;19.948;2022-07-06T23:09:23;100106.56;;;11.97;80.52
41467;BME280;27205;53.690;19.948;2022-07-06T23:14:26;100106.00;;;11.91;80.88
41467;BME280;27205;53.690;19.948;2022-07-06T23:19:29;100105.58;;;11.84;81.19
41467;BME280;27205;53.690;19.948;2022-07-06T23:24:35;100108.98;;;11.78;81.59
41467;BME280;27205;53.690;19.948;2022-07-06T23:29:39;100111.64;;;11.75;81.54
41467;BME280;27205;53.690;19.948;2022-07-06T23:34:43;100106.98;;;11.71;82.10
41467;BME280;27205;53.690;19.948;2022-07-06T23:39:48;100111.70;;;11.66;82.23
41467;BME280;27205;53.690;19.948;2022-07-06T23:44:51;100107.71;;;11.62;82.06
41467;BME280;27205;53.690;19.948;2022-07-06T23:49:56;100107.92;;;11.60;82.16
41467;BME280;27205;53.690;19.948;2022-07-06T23:55:00;100102.28;;;11.59;82.51
